Time;durP1;ratioP1;P1;durP2;ratioP2;P2;SDS_P1;SDS_P2;PMS_P1;PMS_P2;Temp;Humidity;BMP_temperature;BMP_pressure;BME280_temperature;BME280_humidity;BME280_pressure;Samples;Min_cycle;Max_cycle;Signal;HPM_P1;HPM_P2
2021/07/07 00:00:18;;;;;;;;;;;;;;;20.74;59.15;99272.50;531016;1089;103139;-62
2021/07/07 00:10:23;;;;;;;;;;;;;;;20.56;59.64;99277.06;531385;1088;102162;-62
2021/07/07 00:20:33;;;;;;;;;;;;;;;20.51;59.90;99273.24;531407;1090;102330;-62
2021/07/07 00:30:38;;;;;;;;;;;;;;;20.53;59.97;99277.38;532158;1089;102620;-62
2021/07/07 00:40:44;;;;;;;;;;;;;;;20.57;60.44;99269.88;532845;1089;103734;-62
2021/07/07 00:50:50;;;;;;;;;;;;;;;20.40;60.26;99269.93;532229;1090;104161;-62
2021/07/07 01:00:56;;;;;;;;;;;;;;;20.25;61.03;99261.80;532764;1089;102363;-62
2021/07/07 01:11:01;;;;;;;;;;;;;;;20.18;61.09;99263.45;531422;1090;102762;-61
2021/07/07 01:21:06;;;;;;;;;;;;;;;20.25;61.04;99272.45;530748;1090;151456;-62
2021/07/07 01:31:10;;;;;;;;;;;;;;;20.48;61.08;99262.89;531444;1089;102781;-66
2021/07/07 01:41:15;;;;;;;;;;;;;;;20.65;60.70;99269.01;531434;1089;102453;-61
2021/07/07 01:51:20;;;;;;;;;;;;;;;20.76;60.46;99281.97;530789;1089;102840;-62
2021/07/07 02:01:25;;;;;;;;;;;;;;;20.84;60.19;99294.51;532679;1089;101946;-63
2021/07/07 02:11:30;;;;;;;;;;;;;;;20.75;59.84;99295.50;531436;1089;102810;-62
2021/07/07 02:21:35;;;;;;;;;;;;;;;20.55;60.35;99288.73;532208;1089;101787;-63
2021/07/07 02:31:40;;;;;;;;;;;;;;;20.37;60.42;99310.23;532775;1089;103826;-62
2021/07/07 02:41:45;;;;;;;;;;;;;;;20.36;60.60;99313.91;531283;1090;103236;-64
2021/07/07 02:51:50;;;;;;;;;;;;;;;20.39;60.88;99312.75;531199;1090;145061;-63
2021/07/07 03:01:54;;;;;;;;;;;;;;;20.66;60.23;99306.19;531422;1089;102356;-62
2021/07/07 03:11:59;;;;;;;;;;;;;;;20.88;60.28;99303.82;530857;1090;102146;-63
2021/07/07 03:22:05;;;;;;;;;;;;;;;21.35;59.56;99304.75;531441;1089;103353;-63
2021/07/07 03:32:09;;;;;;;;;;;;;;;22.06;58.41;99313.66;531413;1089;102094;-62
2021/07/07 03:42:14;;;;;;;;;;;;;;;23.05;56.50;99317.17;532174;1089;103389;-63
2021/07/07 03:52:20;;;;;;;;;;;;;;;23.37;55.44;99312.41;532822;1089;103534;-63
2021/07/07 04:02:24;;;;;;;;;;;;;;;25.74;54.67;99305.70;532848;1090;102610;-63
2021/07/07 04:12:29;;;;;;;;;;;;;;;26.56;48.89;99314.61;532119;1089;103037;-63
2021/07/07 04:22:34;;;;;;;;;;;;;;;28.44;48.31;99334.32;532784;1089;102547;-63
2021/07/07 04:32:39;;;;;;;;;;;;;;;33.86;40.89;99332.92;531439;1090;154318;-61
2021/07/07 04:42:44;;;;;;;;;;;;;;;37.73;34.81;99340.06;530866;1089;101748;-61
2021/07/07 04:52:50;;;;;;;;;;;;;;;38.03;31.85;99349.13;532830;1089;103121;-62
2021/07/07 05:02:54;;;;;;;;;;;;;;;40.20;29.72;99351.80;530824;1089;102969;-62
2021/07/07 05:12:59;;;;;;;;;;;;;;;39.55;27.76;99352.59;532887;1089;103130;-62
2021/07/07 05:23:07;;;;;;;;;;;;;;;41.96;25.92;99355.52;532865;1089;103059;-63
2021/07/07 05:33:12;;;;;;;;;;;;;;;45.01;23.12;99349.81;532145;1089;101966;-62
2021/07/07 05:43:16;;;;;;;;;;;;;;;47.30;20.69;99357.50;532803;1090;101224;-63
2021/07/07 05:53:23;;;;;;;;;;;;;;;49.48;18.72;99358.03;532805;1090;103348;-63
2021/07/07 06:03:27;;;;;;;;;;;;;;;51.32;17.15;99352.95;532178;1088;102914;-63
2021/07/07 06:13:32;;;;;;;;;;;;;;;52.83;15.74;99351.89;532796;1089;103497;-64
2021/07/07 06:23:37;;;;;;;;;;;;;;;53.77;14.71;99349.41;532784;1089;102712;-62
2021/07/07 06:33:42;;;;;;;;;;;;;;;54.73;13.96;99360.16;532251;1089;102710;-63
2021/07/07 06:43:46;;;;;;;;;;;;;;;55.20;13.04;99364.82;531458;1089;102152;-63
2021/07/07 06:53:51;;;;;;;;;;;;;;;55.57;11.95;99366.22;532098;1090;102900;-63
2021/07/07 07:03:56;;;;;;;;;;;;;;;56.53;11.87;99370.67;532872;1089;102057;-64
2021/07/07 07:14:01;;;;;;;;;;;;;;;56.31;10.90;99372.09;532712;1088;103570;-64
2021/07/07 07:24:06;;;;;;;;;;;;;;;57.09;10.96;99374.47;532198;1089;102920;-65
2021/07/07 07:34:11;;;;;;;;;;;;;;;58.53;10.18;99370.55;532875;1089;103971;-65
2021/07/07 07:44:18;;;;;;;;;;;;;;;57.69;10.47;99382.50;531450;1088;102021;-65
2021/07/07 07:54:23;;;;;;;;;;;;;;;54.80;10.75;99367.78;532150;1089;102187;-64
2021/07/07 08:04:27;;;;;;;;;;;;;;;45.80;15.74;99353.11;532797;1089;102187;-62
2021/07/07 08:14:33;;;;;;;;;;;;;;;41.10;19.35;99368.24;532749;1089;102421;-63
2021/07/07 08:24:38;;;;;;;;;;;;;;;38.36;21.73;99369.38;530807;1089;101979;-63
2021/07/07 08:34:43;;;;;;;;;;;;;;;36.68;24.10;99364.37;532552;1090;102652;-63
2021/07/07 08:44:48;;;;;;;;;;;;;;;36.25;25.00;99370.17;532090;1088;103289;-64
2021/07/07 08:54:53;;;;;;;;;;;;;;;35.58;25.46;99372.86;531490;1088;103029;-63
2021/07/07 09:05:03;;;;;;;;;;;;;;;35.46;25.74;99376.63;532907;1089;102342;-63
2021/07/07 09:15:09;;;;;;;;;;;;;;;34.68;26.09;99389.13;532070;1089;102466;-63
2021/07/07 09:25:18;;;;;;;;;;;;;;;34.65;26.69;99384.20;532880;1089;103116;-63
2021/07/07 09:35:23;;;;;;;;;;;;;;;34.27;27.42;99392.38;531450;1090;102374;-63
2021/07/07 09:45:28;;;;;;;;;;;;;;;34.03;27.90;99395.45;530798;1089;103861;-63
2021/07/07 09:55:33;;;;;;;;;;;;;;;34.09;28.83;99418.91;531421;1088;101932;-64
2021/07/07 10:05:39;;;;;;;;;;;;;;;33.80;28.98;99397.39;532884;1090;102391;-63
2021/07/07 10:15:46;;;;;;;;;;;;;;;34.06;29.02;99405.82;532050;1089;102425;-63
2021/07/07 10:25:51;;;;;;;;;;;;;;;34.30;27.71;99401.94;532798;1088;103382;-63
2021/07/07 10:46:50;;;;;;;;;;;;;;;33.98;28.59;99403.53;514511;1092;64310;-62
2021/07/07 10:56:55;;;;;;;;;;;;;;;33.93;28.75;99400.77;529566;1093;101920;-62
2021/07/07 11:07:20;;;;;;;;;;;;;;;34.57;28.81;99395.59;530342;1093;102992;-63
2021/07/07 11:17:24;;;;;;;;;;;;;;;34.43;28.58;99387.85;530413;1092;102509;-63
2021/07/07 11:27:30;;;;;;;;;;;;;;;34.50;28.56;99403.97;529865;1092;101924;-62
2021/07/07 11:37:35;;;;;;;;;;;;;;;35.03;28.26;99395.88;530187;1092;103659;-62
2021/07/07 11:47:41;;;;;;;;;;;;;;;34.83;27.90;99390.28;530443;1092;102071;-61
2021/07/07 11:57:45;;;;;;;;;;;;;;;34.33;27.94;99391.30;530608;1092;101979;-62
2021/07/07 12:07:50;;;;;;;;;;;;;;;34.96;28.70;99392.52;530703;1092;101685;-62
2021/07/07 12:17:55;;;;;;;;;;;;;;;34.84;27.28;99389.19;529771;1093;102444;-62
2021/07/07 12:27:59;;;;;;;;;;;;;;;34.04;27.69;99398.98;530359;1093;101544;-62
2021/07/07 12:38:04;;;;;;;;;;;;;;;33.80;28.19;99396.56;530341;1092;102653;-61
2021/07/07 12:48:09;;;;;;;;;;;;;;;33.61;28.59;99396.94;529790;1093;101184;-61
2021/07/07 12:58:15;;;;;;;;;;;;;;;34.06;28.45;99400.38;530330;1093;102190;-61
2021/07/07 13:08:27;;;;;;;;;;;;;;;33.94;28.30;99403.25;530166;1092;102143;-61
2021/07/07 13:18:32;;;;;;;;;;;;;;;33.55;28.45;99397.95;529799;1092;102426;-62
2021/07/07 13:28:38;;;;;;;;;;;;;;;33.29;29.04;99407.69;530146;1091;103070;-64
2021/07/07 13:38:43;;;;;;;;;;;;;;;33.35;29.56;99404.77;530477;1092;101682;-63
2021/07/07 13:48:47;;;;;;;;;;;;;;;33.47;29.30;99404.67;530481;1093;101951;-63
2021/07/07 13:58:52;;;;;;;;;;;;;;;33.47;29.43;99401.95;530474;1091;102750;-63
2021/07/07 14:08:57;;;;;;;;;;;;;;;33.89;28.48;99399.66;529810;1092;103258;-63
2021/07/07 14:19:02;;;;;;;;;;;;;;;34.35;28.57;99402.80;530509;1092;102268;-63
2021/07/07 14:29:11;;;;;;;;;;;;;;;33.77;29.00;99402.53;530538;1092;103047;-63
2021/07/07 14:39:16;;;;;;;;;;;;;;;32.95;29.46;99392.33;529998;1092;103210;-63
2021/07/07 14:49:21;;;;;;;;;;;;;;;32.70;30.22;99404.47;530617;1091;102440;-63
2021/07/07 14:59:25;;;;;;;;;;;;;;;33.05;30.40;99391.63;530689;1092;101991;-63
2021/07/07 15:09:30;;;;;;;;;;;;;;;33.24;30.31;99392.95;529752;1092;103412;-63
2021/07/07 15:19:35;;;;;;;;;;;;;;;32.93;31.05;99394.48;530175;1092;102703;-63
2021/07/07 15:29:40;;;;;;;;;;;;;;;32.48;31.06;99396.25;530255;1092;102684;-63
2021/07/07 15:39:45;;;;;;;;;;;;;;;32.08;31.01;99395.31;530163;1092;102780;-64
2021/07/07 15:49:50;;;;;;;;;;;;;;;32.12;31.40;99391.06;530479;1093;101951;-63
2021/07/07 15:59:55;;;;;;;;;;;;;;;32.03;31.72;99390.63;511838;1093;10001782;-64
2021/07/07 16:10:00;;;;;;;;;;;;;;;31.81;31.96;99401.38;530092;1093;103744;-66
2021/07/07 16:20:06;;;;;;;;;;;;;;;31.77;32.47;99392.87;530106;1092;102553;-66
2021/07/07 16:30:12;;;;;;;;;;;;;;;31.78;32.23;99396.42;529439;1092;103153;-66
2021/07/07 16:40:17;;;;;;;;;;;;;;;31.49;32.48;99408.10;530307;1093;102367;-64
2021/07/07 16:50:23;;;;;;;;;;;;;;;31.29;33.29;99425.61;530092;1092;103044;-65
2021/07/07 17:00:28;;;;;;;;;;;;;;;30.38;36.16;99456.56;529577;1092;103938;-67
2021/07/07 17:10:33;;;;;;;;;;;;;;;29.48;38.08;99469.84;530285;1092;102578;-65
2021/07/07 17:20:41;;;;;;;;;;;;;;;28.68;40.39;99483.05;530177;1092;102583;-64
2021/07/07 17:30:46;;;;;;;;;;;;;;;28.05;41.55;99506.30;530095;1092;103178;-64
2021/07/07 17:40:51;;;;;;;;;;;;;;;27.63;42.90;99523.69;530410;1092;103215;-66
2021/07/07 17:50:56;;;;;;;;;;;;;;;27.28;43.88;99524.80;529678;1093;163872;-64
2021/07/07 18:01:01;;;;;;;;;;;;;;;27.16;44.35;99542.65;526236;1092;102531;-64
2021/07/07 18:11:06;;;;;;;;;;;;;;;26.62;45.60;99550.67;530534;1092;102190;-63
2021/07/07 18:21:11;;;;;;;;;;;;;;;26.19;46.54;99567.13;529704;1092;102546;-70
2021/07/07 18:31:15;;;;;;;;;;;;;;;25.76;47.44;99595.89;530417;1093;103201;-72
2021/07/07 18:41:20;;;;;;;;;;;;;;;25.03;48.08;99596.99;530272;1093;102659;-71
2021/07/07 18:51:25;;;;;;;;;;;;;;;24.65;49.42;99621.39;529669;1092;103358;-70
2021/07/07 19:01:30;;;;;;;;;;;;;;;24.26;50.55;99643.01;530097;1092;103050;-72
2021/07/07 19:11:35;;;;;;;;;;;;;;;24.00;51.67;99668.44;529931;1093;102861;-72
2021/07/07 19:21:40;;;;;;;;;;;;;;;23.66;53.09;99675.15;529367;1092;101657;-72
2021/07/07 19:31:46;;;;;;;;;;;;;;;23.29;54.55;99692.89;530130;1093;102475;-72
2021/07/07 19:41:52;;;;;;;;;;;;;;;22.94;55.21;99712.83;529680;1092;102685;-71
2021/07/07 19:51:56;;;;;;;;;;;;;;;22.65;56.09;99721.52;530031;1093;103727;-70
2021/07/07 20:02:01;;;;;;;;;;;;;;;22.41;57.00;99725.94;530174;1092;102982;-72
2021/07/07 20:12:07;;;;;;;;;;;;;;;22.37;57.20;99744.16;529661;1092;102873;-71
2021/07/07 20:22:12;;;;;;;;;;;;;;;22.37;57.51;99751.34;530293;1092;102644;-71
2021/07/07 20:32:17;;;;;;;;;;;;;;;22.27;58.44;99764.91;523574;1093;101818;-69
2021/07/07 20:42:22;;;;;;;;;;;;;;;22.06;59.22;99755.59;510886;1092;102532;-72
2021/07/07 20:52:26;;;;;;;;;;;;;;;21.78;60.20;99763.98;514569;1093;103400;-72
2021/07/07 21:02:31;;;;;;;;;;;;;;;21.55;60.55;99753.08;530475;1093;102331;-70
2021/07/07 21:12:36;;;;;;;;;;;;;;;21.49;60.35;99777.80;529566;1092;103615;-71
2021/07/07 21:22:42;;;;;;;;;;;;;;;21.43;60.59;99787.30;530358;1092;102722;-71
2021/07/07 21:32:47;;;;;;;;;;;;;;;21.27;60.87;99809.47;529742;1092;102643;-69
2021/07/07 21:42:52;;;;;;;;;;;;;;;21.01;61.48;99791.71;526950;1093;102885;-70
2021/07/07 21:52:57;;;;;;;;;;;;;;;20.72;62.15;99799.07;519758;1091;102392;-71
2021/07/07 22:03:03;;;;;;;;;;;;;;;20.70;62.53;99811.71;529504;1092;102937;-71
2021/07/07 22:13:08;;;;;;;;;;;;;;;20.60;62.83;99837.66;527186;1092;102462;-70
2021/07/07 22:23:13;;;;;;;;;;;;;;;20.57;63.14;99825.50;530562;1092;102847;-70
2021/07/07 22:33:17;;;;;;;;;;;;;;;20.53;63.56;99837.45;529470;1092;102150;-70
2021/07/07 22:43:23;;;;;;;;;;;;;;;20.61;63.29;99846.52;532984;1087;102308;-70
2021/07/07 22:53:28;;;;;;;;;;;;;;;20.37;64.46;99835.52;532901;1087;102729;-69
2021/07/07 23:03:33;;;;;;;;;;;;;;;20.16;65.65;99817.22;532357;1087;102180;-69
2021/07/07 23:13:38;;;;;;;;;;;;;;;20.05;65.43;99844.97;532764;1085;102813;-69
2021/07/07 23:23:43;;;;;;;;;;;;;;;20.09;65.32;99848.98;532806;1087;102730;-67
2021/07/07 23:33:48;;;;;;;;;;;;;;;19.98;65.53;99852.75;531157;1087;103436;-62
2021/07/07 23:43:53;;;;;;;;;;;;;;;19.83;66.58;99870.20;520878;1087;102286;-60
2021/07/07 23:53:57;;;;;;;;;;;;;;;19.72;67.37;99873.95;532139;1087;104251;-60
